Station Historical Data
Daily Summary for July 31, 2012 Units:  English    Metric   Both
« Previous Day
Next Day »
Daily Weekly Monthly Yearly Custom
  High: Low: Average:
Temperature: 91.6 °F 72.0 °F 82.3 °F
Dew Point: 78.6 °F 69.9 °F 74.3 °F
Humidity: 93% 55% 78%
Wind Speed: 8.0mph 0.0mph 2.2mph
Wind Gust: 13.0mph - -
Wind- - WSW
Pressure: 29.88 in 29.80 in -
Precipitation: 0.22 in    
Historical Graphs
 
 
Tabular Data for July 31, 2012
Time Temperature Dew Point Pressure Wind Wind Speed Wind Gust Humidity Rainfall Rate (Hourly) Conditions
00:00 79.8 °F 75.9 °F 29.88 in ESE 3.0 mph 3.0 mph 88% 0.00 in
00:03 79.6 °F 75.7 °F 29.88 in ESE 2.0 mph 3.0 mph 88% 0.00 in
00:08 79.5 °F 75.6 °F 29.88 in ESE 3.0 mph 3.0 mph 88% 0.00 in
00:13 79.4 °F 75.5 °F 29.87 in ESE 4.0 mph 4.0 mph 88% 0.00 in
00:18 79.2 °F 75.7 °F 29.87 in ESE 4.0 mph 5.0 mph 89% 0.00 in
00:23 79.3 °F 75.8 °F 29.87 in ESE 3.0 mph 5.0 mph 89% 0.00 in
00:28 79.4 °F 75.5 °F 29.86 in SE 4.0 mph 5.0 mph 88% 0.00 in
00:33 79.5 °F 75.6 °F 29.87 in SE 3.0 mph 5.0 mph 88% 0.00 in
00:38 79.4 °F 75.5 °F 29.87 in Calm   2.0 mph 88% 0.00 in
00:43 79.3 °F 75.4 °F 29.87 in Calm   1.0 mph 88% 0.00 in
00:48 79.2 °F 75.7 °F 29.87 in Calm   1.0 mph 89% 0.00 in
00:53 79.2 °F 75.7 °F 29.87 in SSE 2.0 mph 2.0 mph 89% 0.00 in
00:58 79.2 °F 75.7 °F 29.87 in ESE 1.0 mph 1.0 mph 89% 0.00 in
01:03 79.2 °F 75.7 °F 29.86 in ESE 4.0 mph 4.0 mph 89% 0.00 in
01:08 79.1 °F 75.6 °F 29.86 in ESE 2.0 mph 3.0 mph 89% 0.00 in
01:13 79.0 °F 75.5 °F 29.86 in Calm   1.0 mph 89% 0.00 in
01:18 78.9 °F 75.4 °F 29.86 in SW 2.0 mph 2.0 mph 89% 0.00 in
01:23 78.9 °F 75.7 °F 29.86 in South 2.0 mph 3.0 mph 90% 0.00 in
01:28 79.0 °F 75.5 °F 29.86 in SSE 2.0 mph 3.0 mph 89% 0.00 in
01:33 79.1 °F 75.6 °F 29.85 in SSW 2.0 mph 3.0 mph 89% 0.00 in
01:38 79.2 °F 75.7 °F 29.85 in SSW 1.0 mph 3.0 mph 89% 0.00 in
01:43 79.2 °F 75.7 °F 29.84 in SW 1.0 mph 3.0 mph 89% 0.00 in
01:48 79.2 °F 75.7 °F 29.83 in SSE 2.0 mph 4.0 mph 89% 0.00 in
01:53 79.2 °F 75.7 °F 29.82 in SSE 1.0 mph 2.0 mph 89% 0.00 in
01:58 79.1 °F 75.6 °F 29.82 in South 2.0 mph 2.0 mph 89% 0.00 in
02:03 79.0 °F 75.5 °F 29.82 in SSW 2.0 mph 2.0 mph 89% 0.00 in
02:08 79.0 °F 75.5 °F 29.82 in SSW 1.0 mph 2.0 mph 89% 0.00 in
02:13 79.0 °F 75.5 °F 29.82 in SE 1.0 mph 2.0 mph 89% 0.00 in
02:18 79.0 °F 75.5 °F 29.83 in Calm     89% 0.00 in
02:23 78.9 °F 75.7 °F 29.83 in SE 1.0 mph 1.0 mph 90% 0.00 in
02:28 78.7 °F 75.5 °F 29.83 in NNE 1.0 mph 2.0 mph 90% 0.00 in
02:33 78.6 °F 75.4 °F 29.83 in Calm   1.0 mph 90% 0.00 in
02:38 78.3 °F 75.1 °F 29.83 in West 1.0 mph 1.0 mph 90% 0.00 in
02:43 78.4 °F 75.6 °F 29.82 in Calm   4.0 mph 91% 0.00 in
02:48 78.3 °F 75.5 °F 29.82 in WSW 3.0 mph 5.0 mph 91% 0.00 in
02:53 78.5 °F 75.7 °F 29.83 in WSW 2.0 mph 4.0 mph 91% 0.00 in
02:58 78.5 °F 75.7 °F 29.83 in WSW 3.0 mph 3.0 mph 91% 0.00 in
03:03 78.5 °F 75.7 °F 29.83 in West 1.0 mph 2.0 mph 91% 0.00 in
03:08 78.5 °F 75.7 °F 29.83 in Calm   3.0 mph 91% 0.00 in
03:13 78.5 °F 75.7 °F 29.83 in WNW 2.0 mph 3.0 mph 91% 0.00 in
03:18 78.5 °F 75.7 °F 29.83 in WSW 2.0 mph 3.0 mph 91% 0.00 in
03:23 78.4 °F 75.6 °F 29.83 in West 3.0 mph 6.0 mph 91% 0.00 in
03:29 78.4 °F 75.6 °F 29.82 in WSW 3.0 mph 4.0 mph 91% 0.00 in
03:34 78.3 °F 75.5 °F 29.81 in West 4.0 mph 4.0 mph 91% 0.00 in
03:39 78.3 °F 75.5 °F 29.81 in Calm   3.0 mph 91% 0.00 in
03:44 78.2 °F 75.4 °F 29.81 in WSW 3.0 mph 4.0 mph 91% 0.00 in
03:49 78.1 °F 75.3 °F 29.81 in West 1.0 mph 4.0 mph 91% 0.00 in
03:54 78.1 °F 75.3 °F 29.81 in SW 3.0 mph 5.0 mph 91% 0.00 in
03:59 78.1 °F 75.3 °F 29.81 in SW 3.0 mph 5.0 mph 91% 0.00 in
04:04 78.1 °F 75.3 °F 29.82 in SW 3.0 mph 5.0 mph 91% 0.00 in
04:09 78.1 °F 75.3 °F 29.82 in SW 2.0 mph 5.0 mph 91% 0.00 in
04:14 78.2 °F 75.0 °F 29.82 in WSW 4.0 mph 5.0 mph 90% 0.00 in
04:19 78.2 °F 75.0 °F 29.82 in SW 5.0 mph 6.0 mph 90% 0.00 in
04:24 78.2 °F 75.0 °F 29.82 in West 5.0 mph 7.0 mph 90% 0.00 in
04:29 78.1 °F 74.3 °F 29.81 in WSW 8.0 mph 9.0 mph 88% 0.00 in
04:34 78.1 °F 74.6 °F 29.82 in West 4.0 mph 5.0 mph 89% 0.00 in
04:39 77.8 °F 74.0 °F 29.81 in WSW 5.0 mph 7.0 mph 88% 0.00 in
04:44 77.7 °F 73.9 °F 29.82 in WSW 4.0 mph 7.0 mph 88% 0.00 in
04:49 77.5 °F 73.7 °F 29.82 in WSW 4.0 mph 10.0 mph 88% 0.00 in
04:54 77.2 °F 73.4 °F 29.83 in WSW 3.0 mph 5.0 mph 88% 0.00 in
04:59 77.0 °F 73.5 °F 29.83 in WSW 4.0 mph 5.0 mph 89% 0.00 in
05:04 76.7 °F 73.2 °F 29.82 in WSW 5.0 mph 5.0 mph 89% 0.00 in
05:09 76.3 °F 72.8 °F 29.82 in WNW 2.0 mph 5.0 mph 89% 0.00 in
05:14 75.9 °F 72.8 °F 29.83 in West 2.0 mph 6.0 mph 90% 0.00 in
05:19 75.7 °F 72.6 °F 29.83 in Calm   4.0 mph 90% 0.00 in
05:24 75.4 °F 72.3 °F 29.82 in Calm   5.0 mph 90% 0.00 in
05:29 75.2 °F 72.1 °F 29.81 in Calm   3.0 mph 90% 0.00 in
05:34 75.0 °F 71.9 °F 29.81 in Calm     90% 0.00 in
05:39 74.8 °F 71.7 °F 29.80 in Calm     90% 0.00 in
05:44 74.8 °F 72.0 °F 29.82 in North 4.0 mph 4.0 mph 91% 0.00 in
05:49 74.7 °F 71.9 °F 29.83 in North 4.0 mph 7.0 mph 91% 0.00 in
05:54 74.8 °F 71.7 °F 29.84 in NW 8.0 mph 9.0 mph 90% 0.00 in
05:59 74.5 °F 71.4 °F 29.83 in NE 3.0 mph 13.0 mph 90% 2.31 in
06:04 73.6 °F 70.8 °F 29.81 in East 2.0 mph 7.0 mph 91% 0.36 in
06:09 73.0 °F 70.5 °F 29.82 in Calm   3.0 mph 92% 0.09 in
06:14 72.6 °F 70.2 °F 29.81 in Calm   1.0 mph 92% 0.42 in
06:19 72.4 °F 70.3 °F 29.81 in Calm   2.0 mph 93% 0.09 in
06:24 72.2 °F 70.1 °F 29.81 in Calm   3.0 mph 93% 0.05 in
06:29 72.0 °F 69.9 °F 29.81 in SSW 1.0 mph 1.0 mph 93% 0.04 in
06:34 72.0 °F 69.9 °F 29.81 in SSW 1.0 mph 1.0 mph 93% 0.00 in
06:39 72.0 °F 69.9 °F 29.82 in SW 2.0 mph 2.0 mph 93% 0.00 in
06:44 72.0 °F 69.9 °F 29.82 in SW 2.0 mph 3.0 mph 93% 0.00 in
06:49 72.0 °F 69.9 °F 29.82 in WSW 2.0 mph 3.0 mph 93% 0.00 in
06:54 72.1 °F 70.0 °F 29.82 in SW 3.0 mph 5.0 mph 93% 0.00 in
06:59 72.1 °F 70.0 °F 29.82 in WSW 2.0 mph 4.0 mph 93% 0.00 in
07:04 72.0 °F 69.9 °F 29.82 in West 1.0 mph 3.0 mph 93% 0.00 in
07:10 72.0 °F 69.9 °F 29.83 in NNW 3.0 mph 3.0 mph 93% 0.00 in
07:15 72.0 °F 69.9 °F 29.84 in West 1.0 mph 2.0 mph 93% 0.00 in
07:20 72.1 °F 70.0 °F 29.84 in SW 1.0 mph 3.0 mph 93% 0.00 in
07:25 72.1 °F 70.0 °F 29.84 in Calm   4.0 mph 93% 0.00 in
07:30 72.2 °F 70.1 °F 29.84 in Calm   1.0 mph 93% 0.00 in
07:35 72.2 °F 70.1 °F 29.84 in Calm     93% 0.00 in
07:40 72.2 °F 70.1 °F 29.84 in Calm   1.0 mph 93% 0.00 in
07:45 72.3 °F 70.2 °F 29.84 in NE 1.0 mph 1.0 mph 93% 0.00 in
07:50 72.4 °F 70.3 °F 29.84 in NE 1.0 mph 1.0 mph 93% 0.00 in
07:55 72.5 °F 70.4 °F 29.85 in NE 1.0 mph 2.0 mph 93% 0.00 in
08:00 72.5 °F 70.4 °F 29.85 in ENE 1.0 mph 1.0 mph 93% 0.00 in
08:05 72.6 °F 70.5 °F 29.86 in Calm   1.0 mph 93% 0.00 in
08:10 72.8 °F 70.7 °F 29.86 in Calm   1.0 mph 93% 0.00 in
08:15 73.1 °F 71.0 °F 29.87 in Calm     93% 0.00 in
08:20 73.2 °F 71.1 °F 29.87 in NNW 1.0 mph 1.0 mph 93% 0.00 in
08:25 73.3 °F 71.2 °F 29.87 in NNW 2.0 mph 2.0 mph 93% 0.00 in
08:30 73.5 °F 71.4 °F 29.88 in WNW 2.0 mph 4.0 mph 93% 0.00 in
08:35 73.6 °F 71.5 °F 29.88 in WNW 2.0 mph 3.0 mph 93% 0.00 in
08:40 73.8 °F 71.3 °F 29.88 in WSW 3.0 mph 4.0 mph 92% 0.00 in
08:45 74.1 °F 71.6 °F 29.88 in West 1.0 mph 2.0 mph 92% 0.00 in
08:50 74.4 °F 71.9 °F 29.88 in West 1.0 mph 3.0 mph 92% 0.00 in
08:55 74.6 °F 72.1 °F 29.88 in West 2.0 mph 3.0 mph 92% 0.00 in
09:00 74.9 °F 72.4 °F 29.88 in West 2.0 mph 2.0 mph 92% 0.00 in
09:05 75.0 °F 72.5 °F 29.88 in NW 2.0 mph 3.0 mph 92% 0.00 in
09:10 75.3 °F 72.5 °F 29.88 in NW 2.0 mph 4.0 mph 91% 0.00 in
09:15 75.6 °F 72.8 °F 29.88 in WNW 3.0 mph 3.0 mph 91% 0.00 in
09:20 76.0 °F 73.2 °F 29.88 in WNW 1.0 mph 3.0 mph 91% 0.00 in
09:25 76.3 °F 73.2 °F 29.87 in WNW 2.0 mph 3.0 mph 90% 0.00 in
09:30 76.7 °F 73.2 °F 29.87 in West 3.0 mph 3.0 mph 89% 0.00 in
09:35 77.2 °F 73.7 °F 29.87 in West 3.0 mph 3.0 mph 89% 0.00 in
09:40 77.7 °F 73.2 °F 29.87 in West 2.0 mph 4.0 mph 86% 0.00 in
09:45 78.3 °F 74.5 °F 29.87 in NW 1.0 mph 3.0 mph 88% 0.00 in
09:50 78.6 °F 73.7 °F 29.87 in WNW 2.0 mph 4.0 mph 85% 0.00 in
09:55 78.9 °F 73.7 °F 29.87 in WNW 3.0 mph 4.0 mph 84% 0.00 in
10:00 79.0 °F 74.1 °F 29.87 in SW 2.0 mph 3.0 mph 85% 0.00 in
10:05 79.4 °F 74.5 °F 29.87 in WNW 4.0 mph 4.0 mph 85% 0.00 in
10:10 79.8 °F 74.5 °F 29.87 in WSW 2.0 mph 3.0 mph 84% 0.00 in
10:15 80.0 °F 74.4 °F 29.87 in NW 1.0 mph 5.0 mph 83% 0.00 in
10:20 80.4 °F 74.4 °F 29.87 in WSW 1.0 mph 3.0 mph 82% 0.00 in
10:25 80.5 °F 74.5 °F 29.87 in West 4.0 mph 4.0 mph 82% 0.00 in
10:30 80.7 °F 74.0 °F 29.87 in SW 2.0 mph 7.0 mph 80% 0.00 in
10:35 80.7 °F 73.6 °F 29.87 in West 5.0 mph 8.0 mph 79% 0.00 in
10:40 81.1 °F 74.3 °F 29.87 in WSW 5.0 mph 6.0 mph 80% 0.00 in
10:45 81.1 °F 74.3 °F 29.87 in SW 6.0 mph 7.0 mph 80% 0.00 in
10:50 81.2 °F 74.4 °F 29.87 in SW 7.0 mph 9.0 mph 80% 0.00 in
10:55 81.9 °F 75.9 °F 29.87 in WNW 4.0 mph 5.0 mph 82% 0.00 in
11:00 82.1 °F 75.7 °F 29.87 in WNW 2.0 mph 5.0 mph 81% 0.00 in
11:05 82.0 °F 74.5 °F 29.87 in WSW 5.0 mph 6.0 mph 78% 0.00 in
11:11 82.1 °F 75.3 °F 29.87 in WSW 5.0 mph 8.0 mph 80% 0.00 in
11:16 82.2 °F 74.7 °F 29.88 in West 3.0 mph 7.0 mph 78% 0.00 in
11:21 82.5 °F 74.9 °F 29.88 in WSW 4.0 mph 8.0 mph 78% 0.00 in
11:26 82.7 °F 75.2 °F 29.88 in West 2.0 mph 6.0 mph 78% 0.00 in
11:31 83.1 °F 74.4 °F 29.88 in WSW 5.0 mph 6.0 mph 75% 0.00 in
11:36 83.3 °F 74.9 °F 29.88 in SW 4.0 mph 6.0 mph 76% 0.00 in
11:41 83.5 °F 75.1 °F 29.88 in WSW 6.0 mph 6.0 mph 76% 0.00 in
11:46 83.7 °F 75.3 °F 29.88 in SW 5.0 mph 7.0 mph 76% 0.00 in
11:51 84.0 °F 75.2 °F 29.88 in West 4.0 mph 7.0 mph 75% 0.00 in
11:56 84.0 °F 75.2 °F 29.88 in WSW 3.0 mph 5.0 mph 75% 0.00 in
12:01 84.3 °F 75.9 °F 29.88 in West 5.0 mph 5.0 mph 76% 0.00 in
12:06 84.6 °F 75.4 °F 29.88 in WSW 4.0 mph 6.0 mph 74% 0.00 in
12:11 84.7 °F 75.5 °F 29.88 in West 3.0 mph 6.0 mph 74% 0.00 in
12:16 84.8 °F 75.6 °F 29.88 in WNW 6.0 mph 8.0 mph 74% 0.00 in
12:21 84.9 °F 76.1 °F 29.88 in WNW 5.0 mph 7.0 mph 75% 0.00 in
12:26 85.2 °F 75.6 °F 29.88 in South 6.0 mph 8.0 mph 73% 0.00 in
12:31 85.0 °F 76.2 °F 29.88 in West 1.0 mph 7.0 mph 75% 0.00 in
12:36 85.3 °F 76.1 °F 29.88 in NNW 6.0 mph 7.0 mph 74% 0.00 in
12:41 85.7 °F 76.5 °F 29.88 in NNW 3.0 mph 9.0 mph 74% 0.00 in
12:46 85.9 °F 75.0 °F 29.88 in NW 7.0 mph 8.0 mph 70% 0.00 in
12:52 86.0 °F 76.8 °F 29.87 in NW 2.0 mph 6.0 mph 74% 0.00 in
12:57 86.6 °F 76.1 °F 29.87 in WSW 6.0 mph 7.0 mph 71% 0.00 in
13:02 86.3 °F 77.0 °F 29.87 in WNW 1.0 mph 5.0 mph 74% 0.00 in
13:07 86.4 °F 75.9 °F 29.87 in SW 5.0 mph 8.0 mph 71% 0.00 in
13:12 86.3 °F 76.6 °F 29.87 in South 2.0 mph 6.0 mph 73% 0.00 in
13:17 86.9 °F 77.2 °F 29.87 in WNW 2.0 mph 6.0 mph 73% 0.00 in
13:22 87.3 °F 77.2 °F 29.87 in West 2.0 mph 7.0 mph 72% 0.00 in
13:27 87.7 °F 74.9 °F 29.87 in WNW 6.0 mph 9.0 mph 66% 0.00 in
13:32 87.5 °F 74.3 °F 29.87 in NW 6.0 mph 8.0 mph 65% 0.00 in
13:37 87.7 °F 76.7 °F 29.87 in West 3.0 mph 5.0 mph 70% 0.00 in
13:42 87.9 °F 74.7 °F 29.86 in NNW 3.0 mph 3.0 mph 65% 0.00 in
13:47 88.2 °F 75.9 °F 29.86 in West 4.0 mph 7.0 mph 67% 0.00 in
13:52 88.6 °F 74.9 °F 29.86 in North 4.0 mph 5.0 mph 64% 0.00 in
13:57 88.4 °F 74.7 °F 29.86 in WNW 4.0 mph 6.0 mph 64% 0.00 in
14:02 88.4 °F 74.7 °F 29.86 in WSW 1.0 mph 4.0 mph 64% 0.00 in
14:07 88.7 °F 74.0 °F 29.86 in West 5.0 mph 6.0 mph 62% 0.00 in
14:12 88.4 °F 74.2 °F 29.86 in NW 4.0 mph 4.0 mph 63% 0.00 in
14:17 88.5 °F 76.6 °F 29.86 in NW 2.0 mph 8.0 mph 68% 0.00 in
14:22 88.4 °F 74.2 °F 29.86 in NW 4.0 mph 7.0 mph 63% 0.00 in
14:27 88.9 °F 73.7 °F 29.85 in NW 3.0 mph 5.0 mph 61% 0.00 in
14:32 89.3 °F 75.5 °F 29.85 in NW 2.0 mph 7.0 mph 64% 0.00 in
14:37 89.6 °F 74.9 °F 29.85 in WNW 8.0 mph 8.0 mph 62% 0.00 in
14:43 89.6 °F 76.3 °F 29.85 in WNW 2.0 mph 6.0 mph 65% 0.00 in
14:48 89.6 °F 73.9 °F 29.85 in NNE 2.0 mph 7.0 mph 60% 0.00 in
14:53 89.9 °F 74.2 °F 29.85 in Calm   3.0 mph 60% 0.00 in
14:58 90.2 °F 74.9 °F 29.85 in WNW 4.0 mph 9.0 mph 61% 0.00 in
15:03 89.6 °F 74.4 °F 29.85 in WNW 3.0 mph 4.0 mph 61% 0.00 in
15:08 89.3 °F 75.5 °F 29.85 in WNW 1.0 mph 4.0 mph 64% 0.00 in
15:13 89.7 °F 75.4 °F 29.85 in NW 2.0 mph 4.0 mph 63% 0.00 in
15:18 89.9 °F 74.7 °F 29.84 in Calm   1.0 mph 61% 0.00 in
15:23 90.2 °F 74.4 °F 29.84 in NNW 2.0 mph 6.0 mph 60% 0.00 in
15:28 90.3 °F 74.0 °F 29.84 in WSW 1.0 mph 7.0 mph 59% 0.00 in
15:33 90.3 °F 75.0 °F 29.84 in West 4.0 mph 7.0 mph 61% 0.00 in
15:38 90.0 °F 73.8 °F 29.83 in Calm   4.0 mph 59% 0.00 in
15:43 90.9 °F 75.6 °F 29.83 in NNW 3.0 mph 5.0 mph 61% 0.00 in
15:48 90.5 °F 74.7 °F 29.83 in West 4.0 mph 8.0 mph 60% 0.00 in
15:53 90.5 °F 74.7 °F 29.83 in NNW 3.0 mph 7.0 mph 60% 0.00 in
15:58 90.8 °F 75.5 °F 29.83 in Calm   3.0 mph 61% 0.00 in
16:03 91.5 °F 74.1 °F 29.83 in NW 1.0 mph 4.0 mph 57% 0.00 in
16:08 91.2 °F 73.8 °F 29.83 in NW 7.0 mph 7.0 mph 57% 0.00 in
16:13 91.2 °F 74.9 °F 29.83 in West 7.0 mph 8.0 mph 59% 0.00 in
16:18 90.9 °F 74.6 °F 29.82 in NW 3.0 mph 8.0 mph 59% 0.00 in
16:23 90.9 °F 74.6 °F 29.83 in WNW 4.0 mph 6.0 mph 59% 0.00 in
16:28 91.0 °F 73.1 °F 29.82 in NW 2.0 mph 6.0 mph 56% 0.00 in
16:33 91.0 °F 74.2 °F 29.82 in NW 5.0 mph 7.0 mph 58% 0.00 in
16:38 91.1 °F 73.2 °F 29.82 in Calm   6.0 mph 56% 0.00 in
16:43 91.3 °F 73.9 °F 29.82 in NW 2.0 mph 5.0 mph 57% 0.00 in
16:48 91.2 °F 74.4 °F 29.82 in NW 3.0 mph 5.0 mph 58% 0.00 in
16:53 91.3 °F 74.5 °F 29.81 in NW 1.0 mph 3.0 mph 58% 0.00 in
16:58 91.4 °F 74.0 °F 29.81 in WNW 3.0 mph 4.0 mph 57% 0.00 in
17:03 91.4 °F 73.0 °F 29.81 in West 2.0 mph 6.0 mph 55% 0.00 in
17:08 91.4 °F 74.0 °F 29.81 in WSW 3.0 mph 5.0 mph 57% 0.00 in
17:13 91.6 °F 75.2 °F 29.81 in NNW 4.0 mph 6.0 mph 59% 0.00 in
17:18 91.3 °F 74.5 °F 29.81 in NW 7.0 mph 7.0 mph 58% 0.00 in
17:23 91.2 °F 74.9 °F 29.81 in WNW 4.0 mph 6.0 mph 59% 0.00 in
17:28 91.1 °F 73.8 °F 29.81 in West 3.0 mph 4.0 mph 57% 0.00 in
17:33 91.3 °F 75.0 °F 29.81 in NW 4.0 mph 5.0 mph 59% 0.00 in
17:38 91.5 °F 74.1 °F 29.81 in NNW 5.0 mph 9.0 mph 57% 0.00 in
17:43 91.4 °F 74.0 °F 29.81 in WNW 4.0 mph 8.0 mph 57% 0.00 in
17:48 91.1 °F 75.3 °F 29.80 in WNW 3.0 mph 6.0 mph 60% 0.00 in
17:53 91.0 °F 75.2 °F 29.80 in WNW 3.0 mph 4.0 mph 60% 0.00 in
17:58 91.1 °F 75.3 °F 29.80 in WNW 2.0 mph 5.0 mph 60% 0.00 in
18:03 91.3 °F 75.5 °F 29.81 in NW 3.0 mph 5.0 mph 60% 0.00 in
18:08 91.5 °F 75.2 °F 29.80 in NNW 3.0 mph 5.0 mph 59% 0.00 in
18:13 91.6 °F 75.2 °F 29.80 in WNW 2.0 mph 4.0 mph 59% 0.00 in
18:19 91.5 °F 74.7 °F 29.80 in WNW 4.0 mph 5.0 mph 58% 0.00 in
18:24 91.3 °F 75.0 °F 29.80 in NW 4.0 mph 5.0 mph 59% 0.00 in
18:29 91.3 °F 76.0 °F 29.80 in WNW 6.0 mph 6.0 mph 61% 0.00 in
18:34 91.3 °F 75.0 °F 29.80 in NW 4.0 mph 4.0 mph 59% 0.00 in
18:39 91.3 °F 75.5 °F 29.80 in NW 2.0 mph 4.0 mph 60% 0.00 in
18:44 91.4 °F 75.6 °F 29.80 in NNW 2.0 mph 4.0 mph 60% 0.00 in
18:49 91.4 °F 76.6 °F 29.80 in West 3.0 mph 4.0 mph 62% 0.00 in
18:54 91.4 °F 75.6 °F 29.81 in West 2.0 mph 4.0 mph 60% 0.00 in
18:59 91.4 °F 75.6 °F 29.81 in West 2.0 mph 5.0 mph 60% 0.00 in
19:04 91.4 °F 76.6 °F 29.81 in WSW 3.0 mph 4.0 mph 62% 0.00 in
19:09 91.2 °F 75.9 °F 29.81 in WNW 2.0 mph 4.0 mph 61% 0.00 in
19:14 90.7 °F 76.4 °F 29.81 in West 1.0 mph 2.0 mph 63% 0.00 in
19:19 90.4 °F 75.6 °F 29.81 in West 1.0 mph 2.0 mph 62% 0.00 in
19:24 90.8 °F 76.0 °F 29.81 in WSW 3.0 mph 4.0 mph 62% 0.00 in
19:29 90.8 °F 76.9 °F 29.81 in SW 1.0 mph 1.0 mph 64% 0.00 in
19:34 90.3 °F 76.5 °F 29.81 in SW 2.0 mph 2.0 mph 64% 0.00 in
19:39 89.8 °F 76.0 °F 29.81 in WSW 1.0 mph 3.0 mph 64% 0.00 in
19:44 89.3 °F 76.0 °F 29.81 in Calm   2.0 mph 65% 0.00 in
19:49 89.2 °F 75.9 °F 29.82 in Calm     65% 0.00 in
19:54 89.0 °F 76.6 °F 29.81 in Calm   1.0 mph 67% 0.00 in
19:59 88.6 °F 75.8 °F 29.82 in Calm   1.0 mph 66% 0.00 in
20:04 88.5 °F 75.2 °F 29.82 in SSW 1.0 mph 1.0 mph 65% 0.00 in
20:09 88.4 °F 76.1 °F 29.82 in Calm   1.0 mph 67% 0.00 in
20:14 88.3 °F 78.6 °F 29.82 in South 1.0 mph 1.0 mph 73% 0.00 in
20:19 87.3 °F 78.0 °F 29.82 in Calm   1.0 mph 74% 0.00 in
20:24 86.8 °F 77.5 °F 29.81 in Calm   1.0 mph 74% 0.00 in
20:29 86.5 °F 77.2 °F 29.82 in NE 1.0 mph 2.0 mph 74% 0.00 in
20:34 85.9 °F 76.7 °F 29.82 in NE 1.0 mph 2.0 mph 74% 0.00 in
20:39 85.7 °F 76.1 °F 29.82 in Calm   1.0 mph 73% 0.00 in
20:44 85.7 °F 75.6 °F 29.82 in Calm   1.0 mph 72% 0.00 in
20:50 85.9 °F 75.4 °F 29.82 in Calm     71% 0.00 in
20:55 85.6 °F 76.4 °F 29.82 in NE 1.0 mph 2.0 mph 74% 0.00 in
21:00 84.7 °F 75.5 °F 29.83 in NE 1.0 mph 2.0 mph 74% 0.00 in
21:05 84.5 °F 75.7 °F 29.83 in Calm   1.0 mph 75% 0.00 in
21:10 85.1 °F 73.4 °F 29.83 in NNW 1.0 mph 4.0 mph 68% 0.00 in
21:15 85.7 °F 74.4 °F 29.83 in NE 1.0 mph 2.0 mph 69% 0.00 in
21:20 85.2 °F 74.3 °F 29.83 in NNE 1.0 mph 2.0 mph 70% 0.00 in
21:25 84.8 °F 74.4 °F 29.83 in Calm     71% 0.00 in
21:30 84.2 °F 74.6 °F 29.83 in Calm     73% 0.00 in
21:35 83.9 °F 74.3 °F 29.83 in Calm     73% 0.00 in
21:40 83.7 °F 74.1 °F 29.83 in Calm   1.0 mph 73% 0.00 in
21:45 83.6 °F 74.0 °F 29.84 in Calm   1.0 mph 73% 0.00 in
21:50 83.3 °F 74.2 °F 29.84 in Calm     74% 0.00 in
21:55 83.3 °F 73.8 °F 29.84 in Calm   1.0 mph 73% 0.00 in
22:00 83.3 °F 74.2 °F 29.84 in Calm   1.0 mph 74% 0.00 in
22:05 82.8 °F 74.1 °F 29.84 in Calm     75% 0.00 in
22:10 82.1 °F 74.2 °F 29.84 in Calm     77% 0.00 in
22:15 81.8 °F 73.9 °F 29.84 in Calm     77% 0.00 in
22:20 82.0 °F 74.1 °F 29.85 in Calm     77% 0.00 in
22:25 81.8 °F 73.9 °F 29.85 in Calm     77% 0.00 in
22:30 81.7 °F 73.4 °F 29.85 in Calm     76% 0.00 in
22:35 82.0 °F 73.3 °F 29.85 in Calm   1.0 mph 75% 0.00 in
22:40 82.2 °F 73.5 °F 29.85 in Calm     75% 0.00 in
22:45 82.3 °F 73.2 °F 29.85 in Calm   1.0 mph 74% 0.00 in
22:50 82.4 °F 73.3 °F 29.85 in Calm     74% 0.00 in
22:55 82.1 °F 73.4 °F 29.85 in Calm     75% 0.00 in
23:00 81.4 °F 73.5 °F 29.85 in Calm     77% 0.00 in
23:05 80.9 °F 73.4 °F 29.85 in Calm     78% 0.00 in
23:10 80.8 °F 73.3 °F 29.85 in Calm     78% 0.00 in
23:15 80.7 °F 73.2 °F 29.85 in Calm     78% 0.00 in
23:20 79.8 °F 73.4 °F 29.86 in Calm   1.0 mph 81% 0.00 in
23:25 79.2 °F 73.2 °F 29.86 in Calm     82% 0.00 in
23:30 79.1 °F 73.1 °F 29.86 in Calm     82% 0.00 in
23:35 79.2 °F 73.2 °F 29.85 in Calm     82% 0.00 in
23:40 78.5 °F 73.3 °F 29.85 in Calm     84% 0.00 in
23:45 78.4 °F 73.2 °F 29.85 in NNE 1.0 mph 2.0 mph 84% 0.00 in
23:50 78.3 °F 73.4 °F 29.85 in Calm     85% 0.00 in
23:55 78.0 °F 73.1 °F 29.85 in Calm     85% 0.00 in
Compliments of Weather Underground